createdAt,value
2022-12-03T00:00:16.246Z,0.84
2022-12-03T00:02:42.802Z,0.80
2022-12-03T00:05:10.097Z,1.01
2022-12-03T00:07:36.625Z,1.09
2022-12-03T00:10:04.162Z,1.08
2022-12-03T00:12:30.596Z,1.03
2022-12-03T00:14:57.348Z,0.94
2022-12-03T00:17:23.924Z,0.93
2022-12-03T00:19:50.353Z,0.89
2022-12-03T00:22:16.803Z,0.81
2022-12-03T00:24:43.225Z,0.79
2022-12-03T00:27:09.648Z,0.97
2022-12-03T00:29:38.256Z,0.79
2022-12-03T00:32:04.915Z,0.93
2022-12-03T00:34:31.406Z,0.93
2022-12-03T00:36:57.843Z,0.82
2022-12-03T00:39:24.301Z,0.52
2022-12-03T00:41:50.773Z,0.84
2022-12-03T00:44:17.649Z,0.81
2022-12-03T00:46:44.134Z,0.77
2022-12-03T00:49:10.642Z,0.77
2022-12-03T00:51:37.086Z,0.73
2022-12-03T00:54:03.557Z,0.65
2022-12-03T00:56:30.030Z,0.76
2022-12-03T00:58:56.476Z,0.94
2022-12-03T01:01:22.982Z,0.87
2022-12-03T01:03:49.494Z,0.96
2022-12-03T01:06:15.986Z,0.77
2022-12-03T01:08:42.435Z,0.85
2022-12-03T01:11:28.887Z,0.94
2022-12-03T01:13:55.314Z,0.75
2022-12-03T01:16:21.812Z,0.76
2022-12-03T01:18:48.395Z,0.78
2022-12-03T01:21:14.880Z,0.79
2022-12-03T01:23:41.307Z,0.80
2022-12-03T01:26:07.752Z,0.84
2022-12-03T01:28:34.217Z,0.78
2022-12-03T01:31:19.444Z,0.82
2022-12-03T01:33:45.961Z,0.76
2022-12-03T01:36:12.414Z,0.84
2022-12-03T01:38:38.875Z,0.95
2022-12-03T01:41:10.093Z,0.76
2022-12-03T01:43:38.332Z,0.85
2022-12-03T01:46:05.017Z,0.91
2022-12-03T01:48:34.858Z,0.89
2022-12-03T01:51:01.668Z,0.86
2022-12-03T01:53:28.091Z,0.93
2022-12-03T01:55:54.614Z,0.78
2022-12-03T01:58:26.409Z,0.74
2022-12-03T02:00:53.470Z,0.62
2022-12-03T02:03:23.879Z,0.71
2022-12-03T02:05:50.743Z,0.74
2022-12-03T02:08:35.358Z,0.82
2022-12-03T02:11:07.744Z,0.82
2022-12-03T02:13:34.492Z,0.80
2022-12-03T02:16:01.062Z,0.79
2022-12-03T02:18:27.582Z,0.94
2022-12-03T02:21:06.242Z,0.86
2022-12-03T02:23:54.005Z,0.87
2022-12-03T02:26:20.754Z,0.85
2022-12-03T02:28:47.211Z,0.82
2022-12-03T02:31:13.817Z,0.84
2022-12-03T02:33:40.313Z,0.79
2022-12-03T02:36:07.119Z,0.75
2022-12-03T02:38:35.055Z,0.78
2022-12-03T02:41:07.503Z,0.87
2022-12-03T02:43:34.082Z,0.83
2022-12-03T02:46:02.990Z,0.85
2022-12-03T02:48:36.970Z,0.80
2022-12-03T02:51:09.027Z,0.82
2022-12-03T02:53:44.408Z,0.68
2022-12-03T02:56:14.481Z,0.77
2022-12-03T02:58:43.542Z,0.69
2022-12-03T03:01:10.859Z,0.69
2022-12-03T03:03:38.582Z,0.74
2022-12-03T03:06:06.898Z,0.72
2022-12-03T03:08:33.961Z,0.83
2022-12-03T03:11:02.170Z,0.76
2022-12-03T03:13:30.956Z,0.74
2022-12-03T03:15:57.480Z,0.67
2022-12-03T03:18:24.163Z,0.52
2022-12-03T03:20:50.967Z,0.78
2022-12-03T03:23:21.452Z,0.67
2022-12-03T03:25:53.407Z,0.70
2022-12-03T03:28:21.675Z,0.69
2022-12-03T03:30:48.480Z,0.69
2022-12-03T03:33:15.992Z,0.67
2022-12-03T03:35:44.270Z,0.64
2022-12-03T03:38:11.552Z,0.62
2022-12-03T03:40:39.509Z,0.57
2022-12-03T03:43:07.016Z,0.41
2022-12-03T03:45:33.930Z,0.56
2022-12-03T03:48:01.270Z,0.70
2022-12-03T03:50:31.328Z,0.57
2022-12-03T03:53:00.355Z,0.64
2022-12-03T03:55:27.346Z,0.46
2022-12-03T03:57:54.361Z,0.59
2022-12-03T04:00:20.829Z,0.72
2022-12-03T04:02:47.441Z,0.62
2022-12-03T04:05:20.158Z,0.67
2022-12-03T04:07:47.273Z,0.74
2022-12-03T04:10:33.971Z,0.79
2022-12-03T04:13:01.179Z,0.65
2022-12-03T04:15:28.461Z,0.62
2022-12-03T04:18:14.116Z,0.77
2022-12-03T04:20:41.386Z,0.75
2022-12-03T04:23:08.251Z,0.50
2022-12-03T04:25:53.303Z,0.52
2022-12-03T04:28:38.409Z,0.47
2022-12-03T04:31:25.065Z,0.64
2022-12-03T04:34:10.420Z,0.56
2022-12-03T04:36:36.888Z,0.48
2022-12-03T04:39:03.877Z,0.48
2022-12-03T04:41:30.342Z,0.54
2022-12-03T04:44:15.198Z,0.67
2022-12-03T04:46:41.681Z,0.70
2022-12-03T04:49:08.161Z,0.60
2022-12-03T04:51:34.623Z,0.71
2022-12-03T04:54:01.052Z,0.50
2022-12-03T04:56:27.512Z,0.62
2022-12-03T04:58:53.971Z,0.74
2022-12-03T05:01:20.445Z,0.75
2022-12-03T05:03:46.913Z,0.65
2022-12-03T05:06:13.361Z,0.59
2022-12-03T05:08:39.797Z,0.75
2022-12-03T05:11:06.650Z,0.59
2022-12-03T05:13:33.272Z,0.45
2022-12-03T05:16:00.222Z,0.64
2022-12-03T05:18:26.716Z,0.73
2022-12-03T05:20:53.777Z,0.76
2022-12-03T05:23:21.177Z,0.73
2022-12-03T05:25:47.654Z,0.83
2022-12-03T05:28:14.350Z,0.68
2022-12-03T05:30:41.263Z,0.68
2022-12-03T05:33:08.042Z,0.63
2022-12-03T05:35:34.473Z,0.74
2022-12-03T05:38:00.999Z,0.50
2022-12-03T05:40:27.421Z,0.54
2022-12-03T05:42:53.946Z,0.66
2022-12-03T05:45:40.091Z,0.53
2022-12-03T05:48:08.610Z,0.63
2022-12-03T05:50:36.856Z,0.63
2022-12-03T05:53:16.911Z,0.70
2022-12-03T05:55:43.433Z,0.47
2022-12-03T05:58:11.659Z,0.65
2022-12-03T06:00:42.344Z,0.78
2022-12-03T06:03:10.118Z,0.65
2022-12-03T06:05:36.783Z,0.75
2022-12-03T06:08:03.551Z,0.74
2022-12-03T06:10:30.290Z,0.72
2022-12-03T06:12:57.052Z,0.78
2022-12-03T06:15:23.830Z,0.60
2022-12-03T06:17:50.459Z,0.55
2022-12-03T06:20:19.932Z,0.71
2022-12-03T06:22:47.635Z,0.65
2022-12-03T06:25:15.122Z,0.70
2022-12-03T06:27:41.751Z,0.69
2022-12-03T06:30:12.095Z,0.56
2022-12-03T06:32:38.537Z,0.74
2022-12-03T06:35:05.373Z,0.62
2022-12-03T06:37:31.803Z,0.69
2022-12-03T06:39:58.250Z,0.78
2022-12-03T06:42:24.763Z,0.75
2022-12-03T06:44:51.541Z,0.64
2022-12-03T06:47:18.215Z,0.66
2022-12-03T06:49:44.712Z,0.67
2022-12-03T06:52:11.129Z,0.73
2022-12-03T06:54:37.595Z,0.80
2022-12-03T06:57:04.131Z,0.70
2022-12-03T06:59:34.017Z,0.75
2022-12-03T07:02:01.001Z,0.52
2022-12-03T07:04:27.520Z,0.51
2022-12-03T07:06:53.993Z,0.56
2022-12-03T07:09:20.499Z,0.68
2022-12-03T07:11:47.013Z,0.76
2022-12-03T07:14:16.412Z,0.87
2022-12-03T07:16:43.422Z,0.80
2022-12-03T07:19:10.482Z,0.77
2022-12-03T07:21:37.014Z,0.80
2022-12-03T07:24:03.634Z,0.75
2022-12-03T07:26:30.137Z,0.26
2022-12-03T07:28:56.833Z,0.30
2022-12-03T07:31:23.455Z,0.36
2022-12-03T07:33:49.934Z,0.50
2022-12-03T07:36:16.387Z,0.52
2022-12-03T07:38:42.815Z,0.42
2022-12-03T07:41:09.278Z,0.30
2022-12-03T07:43:35.706Z,0.24
2022-12-03T07:46:02.181Z,0.24
2022-12-03T07:48:28.668Z,0.29
2022-12-03T07:50:55.171Z,0.28
2022-12-03T07:53:21.726Z,0.56
2022-12-03T07:55:48.175Z,0.48
2022-12-03T07:58:14.645Z,0.42
2022-12-03T08:00:41.100Z,0.66
2022-12-03T08:03:07.543Z,0.69
2022-12-03T08:05:34.010Z,0.55
2022-12-03T08:08:01.777Z,0.49
2022-12-03T08:10:28.331Z,0.45
2022-12-03T08:12:57.991Z,0.58
2022-12-03T08:15:26.772Z,0.55
2022-12-03T08:18:00.702Z,0.61
2022-12-03T08:20:38.850Z,0.30
2022-12-03T08:23:13.279Z,0.27
2022-12-03T08:25:39.802Z,0.38
2022-12-03T08:28:35.670Z,0.40
2022-12-03T08:31:19.572Z,0.36
2022-12-03T08:33:52.162Z,0.16
2022-12-03T08:36:22.472Z,0.26
2022-12-03T08:39:02.033Z,0.34
2022-12-03T08:41:48.845Z,0.13
2022-12-03T08:44:28.480Z,0.44
2022-12-03T08:47:10.064Z,0.59
2022-12-03T08:49:37.208Z,0.59
2022-12-03T08:52:13.144Z,0.68
2022-12-03T08:54:39.585Z,0.55
2022-12-03T08:57:27.010Z,0.73
2022-12-03T09:00:01.038Z,0.82
2022-12-03T09:02:33.183Z,0.85
2022-12-03T09:05:15.937Z,0.90
2022-12-03T09:07:42.417Z,1.00
2022-12-03T09:10:09.803Z,0.95
2022-12-03T09:12:36.387Z,0.98
2022-12-03T09:15:02.883Z,1.03
2022-12-03T09:17:29.401Z,1.02
2022-12-03T09:19:55.847Z,1.13
2022-12-03T09:22:22.403Z,1.04
2022-12-03T09:24:48.840Z,0.96
2022-12-03T09:27:15.280Z,1.08
2022-12-03T09:29:41.716Z,1.13
2022-12-03T09:32:09.819Z,1.01
2022-12-03T09:34:39.042Z,1.13
2022-12-03T09:37:05.567Z,1.12
2022-12-03T09:39:32.002Z,1.11
2022-12-03T09:41:58.466Z,1.14
2022-12-03T09:44:25.981Z,1.19
2022-12-03T09:46:52.491Z,1.14
2022-12-03T09:49:19.966Z,1.17
2022-12-03T09:51:46.603Z,1.18
2022-12-03T09:54:27.334Z,1.07
2022-12-03T09:56:55.953Z,1.18
2022-12-03T09:59:25.661Z,1.27
2022-12-03T10:01:53.373Z,1.27
2022-12-03T10:04:20.555Z,1.20
2022-12-03T10:06:47.617Z,1.30
2022-12-03T10:09:22.321Z,1.25
2022-12-03T10:11:49.159Z,1.26
2022-12-03T10:14:18.777Z,1.20
2022-12-03T10:16:45.980Z,1.17
2022-12-03T10:19:24.621Z,1.19
2022-12-03T10:21:51.248Z,1.19
2022-12-03T10:24:37.763Z,1.26
2022-12-03T10:27:21.107Z,1.24
2022-12-03T10:29:58.767Z,1.25
2022-12-03T10:32:39.383Z,1.32
2022-12-03T10:35:11.297Z,1.31
2022-12-03T10:37:56.769Z,1.23
2022-12-03T10:40:32.223Z,1.23
2022-12-03T10:43:24.941Z,1.35
2022-12-03T10:46:11.360Z,1.36
2022-12-03T10:48:38.597Z,1.42
2022-12-03T10:51:20.743Z,1.26
2022-12-03T10:53:48.757Z,1.19
2022-12-03T10:56:23.888Z,1.21
2022-12-03T10:58:50.573Z,1.37
2022-12-03T11:01:23.680Z,1.33
2022-12-03T11:03:51.012Z,1.39
2022-12-03T11:06:23.041Z,1.27
2022-12-03T11:08:58.540Z,1.23
2022-12-03T11:11:29.178Z,1.32
2022-12-03T11:14:02.742Z,1.38
2022-12-03T11:16:40.978Z,1.40
2022-12-03T11:19:13.427Z,1.41
2022-12-03T11:22:12.193Z,1.37
2022-12-03T11:24:40.374Z,1.41
2022-12-03T11:27:17.004Z,1.44
2022-12-03T11:29:57.040Z,1.39
2022-12-03T11:32:38.399Z,1.38
2022-12-03T11:35:34.167Z,1.37
2022-12-03T11:38:37.791Z,1.30
2022-12-03T11:41:07.268Z,1.26
2022-12-03T11:43:52.133Z,1.27
2022-12-03T11:46:27.693Z,1.34
2022-12-03T11:48:57.463Z,1.25
2022-12-03T11:51:26.774Z,1.26
2022-12-03T11:53:56.467Z,1.30
2022-12-03T11:56:26.080Z,1.35
2022-12-03T11:59:00.999Z,1.41
2022-12-03T12:01:39.353Z,1.35
2022-12-03T12:04:08.115Z,1.37
2022-12-03T12:06:43.754Z,1.45
2022-12-03T12:09:10.698Z,1.48
2022-12-03T12:11:43.715Z,1.46
2022-12-03T12:14:13.601Z,1.51
2022-12-03T12:16:47.502Z,1.52
2022-12-03T12:19:41.231Z,1.57
2022-12-03T12:22:19.799Z,1.55
2022-12-03T12:24:51.332Z,1.54
2022-12-03T12:27:21.493Z,1.55
2022-12-03T12:30:00.078Z,1.60
2022-12-03T12:32:29.979Z,1.58
2022-12-03T12:38:39.889Z,1.59
2022-12-03T12:41:09.824Z,1.53
2022-12-03T12:43:38.721Z,1.48
2022-12-03T12:46:45.935Z,1.47
2022-12-03T12:49:00.290Z,1.50
2022-12-03T12:51:26.729Z,1.47
2022-12-03T12:53:53.751Z,1.54
2022-12-03T12:56:31.124Z,1.56
2022-12-03T12:59:09.323Z,1.52
2022-12-03T13:01:37.122Z,1.53
2022-12-03T13:04:23.865Z,1.50
2022-12-03T13:06:53.645Z,1.63
2022-12-03T13:09:23.259Z,1.65
2022-12-03T13:11:54.265Z,1.55
2022-12-03T13:14:31.538Z,1.58
2022-12-03T13:17:00.862Z,1.61
2022-12-03T13:19:30.161Z,1.65
2022-12-03T13:22:00.483Z,1.65
2022-12-03T13:24:40.667Z,1.67
2022-12-03T13:27:19.639Z,1.65
2022-12-03T13:29:49.192Z,1.58
2022-12-03T13:32:21.844Z,1.65
2022-12-03T13:34:50.421Z,1.61
2022-12-03T13:37:21.552Z,1.68
2022-12-03T13:39:50.407Z,1.66
2022-12-03T13:42:39.095Z,1.61
2022-12-03T13:45:14.770Z,1.69
2022-12-03T13:47:49.973Z,1.63
2022-12-03T13:50:39.328Z,1.70
2022-12-03T13:53:13.467Z,1.69
2022-12-03T13:55:44.886Z,1.68
2022-12-03T13:58:11.338Z,1.70
2022-12-03T14:00:37.932Z,1.72
2022-12-03T14:03:04.964Z,1.71
2022-12-03T14:05:31.483Z,1.71
2022-12-03T14:07:58.487Z,1.73
2022-12-03T14:10:25.030Z,1.73
2022-12-03T14:12:51.449Z,1.72
2022-12-03T14:15:18.005Z,1.66
2022-12-03T14:17:44.453Z,1.60
2022-12-03T14:20:11.564Z,1.51
2022-12-03T14:22:38.209Z,1.58
2022-12-03T14:25:06.255Z,1.49
2022-12-03T14:27:32.853Z,1.76
2022-12-03T14:29:59.588Z,1.81
2022-12-03T14:32:26.111Z,1.74
2022-12-03T14:34:52.617Z,1.44
2022-12-03T14:37:19.152Z,1.43
2022-12-03T14:39:45.605Z,1.57
2022-12-03T14:42:15.014Z,1.64
2022-12-03T14:44:42.345Z,1.73
2022-12-03T14:47:09.272Z,1.68
2022-12-03T14:49:35.971Z,1.63
2022-12-03T14:52:02.471Z,1.55
2022-12-03T14:54:28.935Z,1.59
2022-12-03T14:56:55.471Z,1.60
2022-12-03T14:59:27.369Z,1.49
2022-12-03T15:01:54.361Z,1.45
2022-12-03T15:04:21.004Z,1.45
2022-12-03T15:06:47.513Z,1.40
2022-12-03T15:09:14.053Z,1.43
2022-12-03T15:11:45.938Z,1.27
2022-12-03T15:14:12.904Z,1.36
2022-12-03T15:16:39.683Z,1.42
2022-12-03T15:19:06.166Z,1.39
2022-12-03T15:21:34.835Z,1.27
2022-12-03T15:24:02.272Z,1.47
2022-12-03T15:26:29.293Z,1.33
2022-12-03T15:28:55.723Z,1.38
2022-12-03T15:31:22.254Z,1.38
2022-12-03T15:33:48.775Z,1.42
2022-12-03T15:36:15.469Z,1.51
2022-12-03T15:38:41.920Z,1.52
2022-12-03T15:41:20.975Z,1.38
2022-12-03T15:43:48.601Z,1.44
2022-12-03T15:46:15.252Z,1.56
2022-12-03T15:48:41.754Z,1.59
2022-12-03T15:51:08.359Z,1.64
2022-12-03T15:53:35.422Z,1.60
2022-12-03T15:56:01.921Z,1.66
2022-12-03T15:58:28.656Z,1.65
2022-12-03T16:00:55.105Z,1.67
2022-12-03T16:03:21.620Z,1.71
2022-12-03T16:05:48.132Z,1.67
2022-12-03T16:08:14.691Z,1.64
2022-12-03T16:10:41.332Z,1.69
2022-12-03T16:13:07.789Z,1.70
2022-12-03T16:15:35.685Z,1.68
2022-12-03T16:18:02.186Z,1.70
2022-12-03T16:20:28.779Z,1.70
2022-12-03T16:22:55.259Z,1.60
2022-12-03T16:25:21.956Z,1.69
2022-12-03T16:27:48.471Z,1.68
2022-12-03T16:30:15.318Z,1.68
2022-12-03T16:32:42.270Z,1.73
2022-12-03T16:35:09.211Z,1.74
2022-12-03T16:37:35.737Z,1.67
2022-12-03T16:40:02.808Z,1.70
2022-12-03T16:42:29.362Z,1.67
2022-12-03T16:45:08.059Z,1.62
2022-12-03T16:47:35.484Z,1.64
2022-12-03T16:50:03.636Z,1.60
2022-12-03T16:52:30.182Z,1.58
2022-12-03T16:54:56.722Z,1.58
2022-12-03T16:57:23.259Z,1.72
2022-12-03T16:59:49.813Z,1.68
2022-12-03T17:02:16.331Z,1.66
2022-12-03T17:04:43.163Z,1.62
2022-12-03T17:07:09.603Z,1.60
2022-12-03T17:09:36.051Z,1.64
2022-12-03T17:12:02.505Z,1.60
2022-12-03T17:14:33.272Z,1.62
2022-12-03T17:17:00.198Z,1.58
2022-12-03T17:19:26.843Z,1.55
2022-12-03T17:21:54.119Z,1.62
2022-12-03T17:24:21.384Z,1.65
2022-12-03T17:26:47.855Z,1.63
2022-12-03T17:29:14.352Z,1.65
2022-12-03T17:31:42.507Z,1.66
2022-12-03T17:34:09.384Z,1.68
2022-12-03T17:36:35.860Z,1.62
2022-12-03T17:39:02.380Z,1.54
2022-12-03T17:41:28.857Z,1.53
2022-12-03T17:43:55.329Z,1.58
2022-12-03T17:46:21.908Z,1.61
2022-12-03T17:48:48.391Z,1.64
2022-12-03T17:51:14.980Z,1.63
2022-12-03T17:53:41.413Z,1.61
2022-12-03T17:56:07.907Z,1.47
2022-12-03T17:58:34.730Z,1.57
2022-12-03T18:01:03.144Z,1.61
2022-12-03T18:03:30.288Z,1.65
2022-12-03T18:05:56.880Z,1.56
2022-12-03T18:08:23.417Z,1.61
2022-12-03T18:10:50.157Z,1.58
2022-12-03T18:13:16.602Z,1.61
2022-12-03T18:15:43.188Z,1.62
2022-12-03T18:18:09.767Z,1.60
2022-12-03T18:20:36.540Z,1.51
2022-12-03T18:23:03.617Z,1.62
2022-12-03T18:25:30.525Z,1.56
2022-12-03T18:27:57.539Z,1.60
2022-12-03T18:30:24.139Z,1.59
2022-12-03T18:32:50.850Z,1.60
2022-12-03T18:35:17.958Z,1.57
2022-12-03T18:37:44.787Z,1.56
2022-12-03T18:40:20.442Z,1.63
2022-12-03T18:42:47.203Z,1.58
2022-12-03T18:45:14.947Z,1.57
2022-12-03T18:47:42.268Z,1.57
2022-12-03T18:50:10.391Z,1.61
2022-12-03T18:52:37.212Z,1.64
2022-12-03T18:55:04.944Z,1.60
2022-12-03T18:57:31.380Z,1.62
2022-12-03T18:59:58.235Z,1.56
2022-12-03T19:05:11.533Z,1.48
2022-12-03T19:07:38.294Z,1.54
2022-12-03T19:10:05.395Z,1.45
2022-12-03T19:12:32.632Z,1.53
2022-12-03T19:14:59.091Z,1.53
2022-12-03T19:17:27.123Z,1.60
2022-12-03T19:19:54.497Z,1.68
2022-12-03T19:22:21.350Z,1.64
2022-12-03T19:24:47.857Z,1.55
2022-12-03T19:27:14.412Z,1.64
2022-12-03T19:29:40.951Z,1.62
2022-12-03T19:32:07.403Z,1.63
2022-12-03T19:34:33.866Z,1.57
2022-12-03T19:37:00.340Z,1.60
2022-12-03T19:39:26.854Z,1.56
2022-12-03T19:41:53.317Z,1.61
2022-12-03T19:44:19.779Z,1.63
2022-12-03T19:46:46.211Z,1.62
2022-12-03T19:49:12.715Z,1.61
2022-12-03T19:51:39.217Z,1.62
2022-12-03T19:54:07.564Z,1.59
2022-12-03T19:56:34.962Z,1.56
2022-12-03T19:59:01.430Z,1.60
2022-12-03T20:01:30.855Z,1.60
2022-12-03T20:03:58.770Z,1.61
2022-12-03T20:06:28.128Z,1.58
2022-12-03T20:08:59.479Z,1.67
2022-12-03T20:11:32.576Z,1.63
2022-12-03T20:14:04.673Z,1.65
2022-12-03T20:16:31.804Z,1.62
2022-12-03T20:19:00.352Z,1.57
2022-12-03T20:21:29.395Z,1.59
2022-12-03T20:23:55.819Z,1.58
2022-12-03T20:26:22.991Z,1.60
2022-12-03T20:28:50.150Z,1.58
2022-12-03T20:31:19.836Z,1.59
2022-12-03T20:33:49.161Z,1.62
2022-12-03T20:36:17.722Z,1.63
2022-12-03T20:38:45.066Z,1.59
2022-12-03T20:41:13.999Z,1.63
2022-12-03T20:43:41.159Z,1.59
2022-12-03T20:46:15.827Z,1.67
2022-12-03T20:48:43.954Z,1.63
2022-12-03T20:51:16.615Z,1.63
2022-12-03T20:53:43.723Z,1.59
2022-12-03T20:56:10.863Z,1.61
2022-12-03T20:58:37.535Z,1.59
2022-12-03T21:01:22.837Z,1.70
2022-12-03T21:03:50.487Z,1.65
2022-12-03T21:06:17.640Z,1.61
2022-12-03T21:08:44.601Z,1.61
2022-12-03T21:11:13.626Z,1.57
2022-12-03T21:13:41.613Z,1.63
2022-12-03T21:16:10.399Z,1.63
2022-12-03T21:18:37.600Z,1.72
2022-12-03T21:21:05.308Z,1.68
2022-12-03T21:23:33.466Z,1.64
2022-12-03T21:26:21.326Z,1.68
2022-12-03T21:28:50.024Z,1.68
2022-12-03T21:31:19.200Z,1.64
2022-12-03T21:33:46.215Z,1.60
2022-12-03T21:36:15.849Z,1.65
2022-12-03T21:38:43.625Z,1.64
2022-12-03T21:41:10.741Z,1.60
2022-12-03T21:43:37.413Z,1.62
2022-12-03T21:47:09.617Z,1.59
2022-12-03T21:48:55.465Z,1.64
2022-12-03T21:51:21.943Z,1.59
2022-12-03T21:53:48.447Z,1.59
2022-12-03T21:56:17.332Z,1.64
2022-12-03T21:58:45.115Z,1.67
2022-12-03T22:01:22.993Z,1.70
2022-12-03T22:03:49.873Z,1.71
2022-12-03T22:06:17.066Z,1.67
2022-12-03T22:08:43.984Z,1.63
2022-12-03T22:11:13.430Z,1.64
2022-12-03T22:13:40.915Z,1.62
2022-12-03T22:16:13.478Z,1.58
2022-12-03T22:18:40.147Z,1.53
2022-12-03T22:21:09.080Z,1.56
2022-12-03T22:23:35.672Z,1.58
2022-12-03T22:26:11.149Z,1.64
2022-12-03T22:28:37.656Z,1.63
2022-12-03T22:31:08.439Z,1.61
2022-12-03T22:33:36.120Z,1.67
2022-12-03T22:36:08.306Z,1.67
2022-12-03T22:38:34.767Z,1.67
2022-12-03T22:41:05.525Z,1.68
2022-12-03T22:43:32.561Z,1.68
2022-12-03T22:45:59.235Z,1.64
2022-12-03T22:48:25.706Z,1.65
2022-12-03T22:50:52.741Z,1.63
2022-12-03T22:53:19.680Z,1.59
2022-12-03T22:55:54.784Z,1.61
2022-12-03T22:58:21.594Z,1.60
2022-12-03T23:00:48.058Z,1.63
2022-12-03T23:03:14.547Z,1.60
2022-12-03T23:05:41.160Z,1.61
2022-12-03T23:08:10.579Z,1.59
2022-12-03T23:10:40.166Z,1.64
2022-12-03T23:13:07.037Z,1.65
2022-12-03T23:15:33.754Z,1.65
2022-12-03T23:18:00.408Z,1.66
2022-12-03T23:20:27.435Z,1.66
2022-12-03T23:22:55.333Z,1.68
2022-12-03T23:25:22.288Z,1.67
2022-12-03T23:27:49.310Z,1.69
2022-12-03T23:30:16.597Z,1.67
2022-12-03T23:32:44.353Z,1.65
2022-12-03T23:35:12.114Z,1.64
2022-12-03T23:37:42.183Z,1.61
2022-12-03T23:40:09.051Z,1.66
2022-12-03T23:42:35.489Z,1.67
2022-12-03T23:45:01.967Z,1.63
2022-12-03T23:47:28.432Z,1.58
2022-12-03T23:49:55.208Z,1.62
2022-12-03T23:52:21.923Z,1.63
2022-12-03T23:54:48.347Z,1.66
2022-12-03T23:57:15.940Z,1.63
2022-12-03T23:59:42.424Z,1.63
